Time;durP1;ratioP1;P1;durP2;ratioP2;P2;SDS_P1;SDS_P2;PMS_P1;PMS_P2;Temp;Humidity;BMP_temperature;BMP_pressure;BME280_temperature;BME280_humidity;BME280_pressure;Samples;Min_cycle;Max_cycle;Signal;HPM_P1;HPM_P2
2023/08/28 00:00:14;;;;;;;0.40;0.40;;;;;;;;;;21000438;23;20256;-70
2023/08/28 00:10:17;;;;;;;0.50;0.40;;;;;;;;;;21039736;28;20229;-70
2023/08/28 00:20:19;;;;;;;0.30;0.30;;;;;;;;;;21017631;28;20228;-70
2023/08/28 00:30:21;;;;;;;0.60;0.40;;;;;;;;;;21046935;28;20286;-70
2023/08/28 00:40:22;;;;;;;0.40;0.30;;;;;;;;;;21033113;28;20706;-67
2023/08/28 00:50:25;;;;;;;0.57;0.40;;;;;;;;;;21077722;28;20275;-67
2023/08/28 01:00:28;;;;;;;1.27;0.40;;;;;;;;;;21041721;28;20226;-69
2023/08/28 01:10:46;;;;;;;0.70;0.50;;;18.00;99.90;;;;;;21111902;28;20223;-69
2023/08/28 01:20:49;;;;;;;0.40;0.30;;;;;;;;;;21035530;28;20232;-69
2023/08/28 01:30:51;;;;;;;0.70;0.50;;;;;;;;;;21089643;27;20626;-69
2023/08/28 01:41:05;;;;;;;1.20;0.70;;;17.80;99.90;;;;;;21081406;28;20701;-69
2023/08/28 01:51:08;;;;;;;0.30;0.30;;;;;;;;;;21071638;28;20275;-69
2023/08/28 02:01:10;;;;;;;0.33;0.20;;;;;;;;;;21071009;27;20265;-69
2023/08/28 02:11:12;;;;;;;0.77;0.30;;;;;;;;;;21081276;27;20217;-69
2023/08/28 02:21:14;;;;;;;0.30;0.30;;;;;;;;;;21029006;28;20560;-69
2023/08/28 02:31:16;;;;;;;1.97;0.50;;;;;;;;;;21043416;28;20270;-69
2023/08/28 02:41:18;;;;;;;1.23;0.30;;;;;;;;;;21072930;28;20714;-68
2023/08/28 02:51:20;;;;;;;0.60;0.40;;;;;;;;;;21038717;28;20622;-69
2023/08/28 03:01:22;;;;;;;0.47;0.30;;;;;;;;;;21041501;28;20699;-69
2023/08/28 03:11:24;;;;;;;0.33;0.30;;;;;;;;;;21041358;28;20285;-69
2023/08/28 03:21:26;;;;;;;3.40;0.50;;;;;;;;;;21053648;28;20296;-68
2023/08/28 03:31:29;;;;;;;0.63;0.30;;;;;;;;;;21095887;28;20640;-68
2023/08/28 03:41:31;;;;;;;0.97;0.50;;;;;;;;;;21054024;28;20670;-68
2023/08/28 03:51:33;;;;;;;0.53;0.40;;;;;;;;;;21073842;28;20216;-68
2023/08/28 04:01:38;;;;;;;0.30;0.30;;;16.60;99.90;;;;;;21021090;28;20224;-69
2023/08/28 04:11:43;;;;;;;0.77;0.37;;;16.60;99.90;;;;;;21051486;28;20231;-69
2023/08/28 04:21:48;;;;;;;0.73;0.40;;;;;;;;;;21066187;28;20261;-69
2023/08/28 04:31:49;;;;;;;0.47;0.40;;;16.80;99.90;;;;;;21045750;28;20281;-68
2023/08/28 04:41:52;;;;;;;1.13;0.50;;;;;;;;;;21051874;28;20229;-69
2023/08/28 04:51:54;;;;;;;1.87;0.60;;;;;;;;;;21086678;28;20208;-69
2023/08/28 05:01:56;;;;;;;1.20;0.53;;;;;;;;;;21030771;28;20850;-69
2023/08/28 05:11:59;;;;;;;0.53;0.43;;;;;;;;;;21108734;28;20236;-69
2023/08/28 05:22:01;;;;;;;2.87;0.60;;;;;;;;;;21064957;28;20278;-68
2023/08/28 05:32:03;;;;;;;1.30;0.50;;;;;;;;;;21013684;28;20273;-69
2023/08/28 05:42:05;;;;;;;1.57;0.70;;;;;;;;;;21049857;28;20232;-69
2023/08/28 05:52:07;;;;;;;3.03;0.60;;;;;;;;;;21033296;28;20300;-68
2023/08/28 06:02:09;;;;;;;5.90;0.83;;;;;;;;;;21007230;23;20232;-83
2023/08/28 06:12:11;;;;;;;1.20;0.50;;;;;;;;;;20920578;28;20703;-83
2023/08/28 06:22:12;;;;;;;2.13;0.83;;;;;;;;;;20832103;28;20238;-83
2023/08/28 06:32:14;;;;;;;2.77;0.80;;;;;;;;;;20851278;28;20341;-84
2023/08/28 06:42:16;;;;;;;7.57;1.40;;;;;;;;;;20856473;28;20307;-82
2023/08/28 06:52:19;;;;;;;1.50;0.60;;;;;;;;;;20830850;28;20226;-84
2023/08/28 07:02:21;;;;;;;1.03;0.50;;;;;;;;;;20854252;28;20272;-84
2023/08/28 07:12:23;;;;;;;0.80;0.53;;;;;;;;;;20892146;28;20226;-84
2023/08/28 07:22:25;;;;;;;1.10;0.40;;;;;;;;;;20838347;28;20230;-82
2023/08/28 07:32:27;;;;;;;0.60;0.40;;;;;;;;;;20870128;28;20248;-84
2023/08/28 07:42:29;;;;;;;3.40;0.97;;;;;;;;;;20848366;28;20275;-84
2023/08/28 07:52:31;;;;;;;0.60;0.40;;;;;;;;;;20877689;28;20230;-83
2023/08/28 08:02:33;;;;;;;0.43;0.40;;;;;;;;;;20901972;28;20241;-84
2023/08/28 08:12:35;;;;;;;0.47;0.47;;;;;;;;;;20861353;28;20573;-84
2023/08/28 08:22:37;;;;;;;0.40;0.30;;;;;;;;;;20867467;28;20276;-84
2023/08/28 08:32:38;;;;;;;0.97;0.43;;;;;;;;;;20810951;28;20565;-83
2023/08/28 08:42:40;;;;;;;0.43;0.33;;;;;;;;;;20895463;28;20274;-84
2023/08/28 08:52:43;;;;;;;0.40;0.40;;;17.40;99.90;;;;;;20861261;28;20282;-84
2023/08/28 09:02:45;;;;;;;0.83;0.50;;;;;;;;;;20801266;28;20294;-83
2023/08/28 09:12:47;;;;;;;0.53;0.40;;;;;;;;;;20847057;28;20210;-84
2023/08/28 09:22:50;;;;;;;0.63;0.40;;;;;;;;;;20858727;28;20272;-85
2023/08/28 09:32:51;;;;;;;0.67;0.47;;;;;;;;;;20814073;28;20260;-83
2023/08/28 09:42:53;;;;;;;0.43;0.30;;;;;;;;;;20892848;28;20221;-85
2023/08/28 09:52:55;;;;;;;0.60;0.30;;;;;;;;;;20910161;28;20226;-83
2023/08/28 10:02:57;;;;;;;0.50;0.40;;;;;;;;;;20842555;28;20230;-85
2023/08/28 10:13:01;;;;;;;0.47;0.30;;;;;;;;;;20883816;28;20265;-86
2023/08/28 10:23:03;;;;;;;1.13;0.70;;;;;;;;;;20855409;28;20221;-86
2023/08/28 10:33:10;;;;;;;0.70;0.60;;;;;;;;;;20864230;28;20214;-85
2023/08/28 10:43:12;;;;;;;0.73;0.60;;;;;;;;;;20836452;28;20275;-86
2023/08/28 10:53:35;;;;;;;1.50;0.83;;;;;;;;;;20885723;28;20215;-86
2023/08/28 11:04:16;;;;;;;1.47;0.80;;;;;;;;;;20892135;28;20257;-86
2023/08/28 11:14:24;;;;;;;1.23;0.90;;;;;;;;;;20752695;28;20691;-87
2023/08/28 11:24:27;;;;;;;1.30;0.93;;;;;;;;;;20861735;28;20239;-83
2023/08/28 11:34:29;;;;;;;1.40;0.80;;;;;;;;;;20825069;28;20285;-87
2023/08/28 11:44:38;;;;;;;1.90;0.90;;;;;;;;;;20817619;28;20781;-86
2023/08/28 11:55:07;;;;;;;0.90;0.60;;;;;;;;;;20859328;28;20223;-86
2023/08/28 12:05:10;;;;;;;0.93;0.70;;;;;;;;;;20899790;22;20648;-67
2023/08/28 12:15:12;;;;;;;1.17;0.50;;;;;;;;;;20840141;28;20250;-66
2023/08/28 12:25:14;;;;;;;0.77;0.50;;;;;;;;;;20797179;28;20702;-67
2023/08/28 12:35:16;;;;;;;0.70;0.40;;;;;;;;;;20857622;22;20226;-69
2023/08/28 12:45:18;;;;;;;0.43;0.30;;;;;;;;;;20848037;28;20590;-69
2023/08/28 12:55:20;;;;;;;0.60;0.50;;;;;;;;;;20811850;28;20225;-70
2023/08/28 13:05:22;;;;;;;0.50;0.30;;;;;;;;;;20769021;28;20227;-69
2023/08/28 13:15:24;;;;;;;0.37;0.30;;;;;;;;;;20785023;28;20221;-69
2023/08/28 13:25:26;;;;;;;0.30;0.30;;;;;;;;;;20800890;28;20231;-69
2023/08/28 13:35:28;;;;;;;0.40;0.30;;;20.00;99.90;;;;;;20783957;28;20278;-69
2023/08/28 13:45:30;;;;;;;0.67;0.40;;;19.80;99.90;;;;;;20831584;28;20276;-69
2023/08/28 13:55:32;;;;;;;0.20;0.20;;;;;;;;;;20836753;28;20760;-69
2023/08/28 14:05:34;;;;;;;0.33;0.30;;;;;;;;;;20810952;28;20223;-69
2023/08/28 14:15:35;;;;;;;0.30;0.30;;;;;;;;;;20787667;28;20215;-70
2023/08/28 14:25:37;;;;;;;0.70;0.37;;;;;;;;;;20854668;28;20220;-68
2023/08/28 14:35:46;;;;;;;0.63;0.30;;;19.90;99.90;;;;;;20825986;28;20230;-69
2023/08/28 14:45:48;;;;;;;0.27;0.27;;;;;;;;;;20860319;28;20232;-68
2023/08/28 14:55:54;;;;;;;0.50;0.40;;;;;;;;;;20859406;28;20239;-69
2023/08/28 15:05:56;;;;;;;0.83;0.50;;;;;;;;;;20863921;28;20223;-68
2023/08/28 15:15:58;;;;;;;0.40;0.30;;;;;;;;;;20772340;28;20575;-68
2023/08/28 15:26:00;;;;;;;0.60;0.30;;;;;;;;;;20807686;28;20576;-68
2023/08/28 15:36:02;;;;;;;1.77;0.30;;;;;;;;;;20802558;28;20612;-68
2023/08/28 15:46:04;;;;;;;0.37;0.30;;;;;;;;;;20793567;28;20236;-68
2023/08/28 15:56:06;;;;;;;0.80;0.50;;;;;;;;;;20797254;28;20228;-68
2023/08/28 16:06:08;;;;;;;0.80;0.50;;;19.80;99.90;;;;;;20843004;28;20281;-68
2023/08/28 16:16:10;;;;;;;0.87;0.47;;;;;;;;;;20817951;28;20556;-68
2023/08/28 16:26:12;;;;;;;0.40;0.40;;;;;;;;;;20795646;28;20227;-68
2023/08/28 16:36:14;;;;;;;1.17;0.50;;;;;;;;;;20847363;28;21003;-67
2023/08/28 16:46:16;;;;;;;1.90;0.60;;;;;;;;;;20870999;22;20225;-68
2023/08/28 16:56:18;;;;;;;0.90;0.40;;;;;;;;;;20864984;28;20217;-67
2023/08/28 17:06:20;;;;;;;1.30;0.50;;;;;;;;;;20802819;28;20306;-67
2023/08/28 17:16:23;;;;;;;0.70;0.40;;;;;;;;;;20878551;28;20227;-67
2023/08/28 17:26:24;;;;;;;1.17;0.50;;;;;;;;;;20861920;28;20218;-67
2023/08/28 17:36:26;;;;;;;0.90;0.50;;;;;;;;;;20856238;28;20764;-67
2023/08/28 17:46:28;;;;;;;0.80;0.47;;;;;;;;;;20840507;28;20791;-67
2023/08/28 17:56:34;;;;;;;1.60;0.80;;;;;;;;;;20767371;28;20517;-67
2023/08/28 18:06:35;;;;;;;0.57;0.40;;;;;;;;;;20774194;28;20578;-67
2023/08/28 18:16:37;;;;;;;0.70;0.40;;;;;;;;;;20790002;28;20207;-67
2023/08/28 18:26:40;;;;;;;1.37;0.60;;;;;;;;;;20773380;28;20290;-67
2023/08/28 18:36:41;;;;;;;0.67;0.43;;;;;;;;;;20845254;23;20422;-68
2023/08/28 18:46:44;;;;;;;1.43;0.47;;;;;;;;;;20826372;28;20594;-68
2023/08/28 18:56:45;;;;;;;0.57;0.30;;;;;;;;;;20843008;28;20221;-68
2023/08/28 19:06:47;;;;;;;1.60;0.70;;;;;;;;;;20788416;28;20301;-69
2023/08/28 19:16:49;;;;;;;0.90;0.50;;;;;;;;;;20765254;28;20218;-69
2023/08/28 19:26:51;;;;;;;0.80;0.50;;;;;;;;;;20810355;28;20684;-69
2023/08/28 19:36:53;;;;;;;1.00;0.60;;;;;;;;;;20781854;28;20227;-69
2023/08/28 19:46:54;;;;;;;1.17;0.50;;;;;;;;;;20830642;28;20236;-69
2023/08/28 19:56:56;;;;;;;2.30;0.60;;;;;;;;;;20858659;28;20674;-70
2023/08/28 20:06:58;;;;;;;0.87;0.40;;;;;;;;;;20864902;28;20701;-69
2023/08/28 20:17:00;;;;;;;1.03;0.60;;;;;;;;;;20784347;28;20210;-69
2023/08/28 20:27:04;;;;;;;1.23;0.60;;;;;;;;;;20780533;28;20297;-69
2023/08/28 20:37:06;;;;;;;1.73;0.57;;;;;;;;;;20773410;28;20278;-68
2023/08/28 20:47:08;;;;;;;2.77;0.60;;;;;;;;;;20842168;28;20294;-69
2023/08/28 20:57:10;;;;;;;0.80;0.70;;;;;;;;;;20825808;28;20228;-69
2023/08/28 21:07:13;;;;;;;0.90;0.70;;;;;;;;;;20836797;28;20227;-69
2023/08/28 21:17:15;;;;;;;1.03;0.60;;;18.50;99.90;;;;;;20785425;28;20215;-69
2023/08/28 21:27:17;;;;;;;1.10;0.60;;;;;;;;;;20768779;28;20246;-69
2023/08/28 21:37:19;;;;;;;1.53;0.57;;;;;;;;;;20785795;28;20226;-68
2023/08/28 21:47:21;;;;;;;1.27;0.70;;;;;;;;;;20834499;28;20343;-68
2023/08/28 21:57:41;;;;;;;0.60;0.57;;;;;;;;;;20800532;28;20230;-68
2023/08/28 22:08:01;;;;;;;1.00;0.53;;;;;;;;;;20804789;28;20786;-68
2023/08/28 22:18:38;;;;;;;0.80;0.63;;;;;;;;;;20761488;28;20315;-68
2023/08/28 22:28:40;;;;;;;0.40;0.40;;;;;;;;;;20827207;28;20272;-68
2023/08/28 22:38:42;;;;;;;0.90;0.60;;;;;;;;;;20803646;28;20226;-68
2023/08/28 22:48:44;;;;;;;1.10;0.60;;;;;;;;;;20786910;28;20689;-68
2023/08/28 22:58:46;;;;;;;0.70;0.50;;;;;;;;;;20832568;28;20259;-68
2023/08/28 23:08:47;;;;;;;0.60;0.40;;;;;;;;;;20862561;28;20216;-69
2023/08/28 23:18:49;;;;;;;0.87;0.60;;;;;;;;;;20819824;28;20237;-69
2023/08/28 23:28:51;;;;;;;1.10;0.80;;;;;;;;;;20822484;28;20234;-69
2023/08/28 23:38:53;;;;;;;0.80;0.50;;;;;;;;;;20800705;28;20630;-69
2023/08/28 23:48:55;;;;;;;0.90;0.60;;;;;;;;;;20796569;28;20564;-69
2023/08/28 23:58:57;;;;;;;0.90;0.50;;;;;;;;;;20779323;28;20222;-68
